createdAt,value
2022-11-24T00:00:19.386Z,11.50
2022-11-24T00:03:43.640Z,24.00
2022-11-24T00:06:47.473Z,23.75
2022-11-24T00:09:52.161Z,14.00
2022-11-24T00:12:55.842Z,6.00
2022-11-24T00:16:06.494Z,9.25
2022-11-24T00:19:14.600Z,13.25
2022-11-24T00:22:39.275Z,20.75
2022-11-24T00:25:44.258Z,6.00
2022-11-24T00:28:48.768Z,6.75
2022-11-24T00:31:52.420Z,9.75
2022-11-24T00:34:55.864Z,9.25
2022-11-24T00:37:59.517Z,8.25
2022-11-24T00:41:04.230Z,8.75
2022-11-24T00:44:08.249Z,6.75
2022-11-24T00:47:11.816Z,9.50
2022-11-24T00:50:15.665Z,9.50
2022-11-24T00:53:19.073Z,10.00
2022-11-24T00:56:24.365Z,7.00
2022-11-24T00:59:27.677Z,6.00
2022-11-24T01:02:31.453Z,5.50
2022-11-24T01:05:37.439Z,7.00
2022-11-24T01:08:42.247Z,2.25
2022-11-24T01:12:02.249Z,5.50
2022-11-24T01:15:06.839Z,5.75
2022-11-24T01:18:10.789Z,4.50
2022-11-24T01:21:15.501Z,3.00
2022-11-24T01:24:19.025Z,5.75
2022-11-24T01:27:24.077Z,9.25
2022-11-24T01:30:27.414Z,9.75
2022-11-24T01:33:31.088Z,9.00
2022-11-24T01:36:34.649Z,13.50
2022-11-24T01:39:38.253Z,8.75
2022-11-24T01:42:48.353Z,9.00
2022-11-24T01:45:52.038Z,11.00
2022-11-24T01:49:04.231Z,11.00
2022-11-24T01:52:12.312Z,13.25
2022-11-24T01:55:20.702Z,11.00
2022-11-24T01:58:31.010Z,16.00
2022-11-24T02:01:34.465Z,15.25
2022-11-24T02:04:59.635Z,14.50
2022-11-24T02:08:04.305Z,15.75
2022-11-24T02:11:08.018Z,14.00
2022-11-24T02:14:17.237Z,16.00
2022-11-24T02:17:20.882Z,11.00
2022-11-24T02:20:24.288Z,11.00
2022-11-24T02:23:38.869Z,14.50
2022-11-24T02:26:46.395Z,10.50
2022-11-24T02:29:50.573Z,16.00
2022-11-24T02:32:53.915Z,14.25
2022-11-24T02:35:57.674Z,25.50
2022-11-24T02:39:01.008Z,19.25
2022-11-24T02:42:11.355Z,20.00
2022-11-24T02:45:16.679Z,17.25
2022-11-24T02:48:20.290Z,13.25
2022-11-24T02:51:23.850Z,16.50
2022-11-24T02:54:27.563Z,11.00
2022-11-24T02:57:32.464Z,6.00
2022-11-24T03:00:36.313Z,10.00
2022-11-24T03:03:39.759Z,11.50
2022-11-24T03:06:43.677Z,10.50
2022-11-24T03:09:47.031Z,14.00
2022-11-24T03:12:52.018Z,19.00
2022-11-24T03:15:55.344Z,16.00
2022-11-24T03:18:59.004Z,20.25
2022-11-24T03:22:02.410Z,18.00
2022-11-24T03:25:24.964Z,14.75
2022-11-24T03:28:31.806Z,9.25
2022-11-24T03:31:36.123Z,13.50
2022-11-24T03:34:39.486Z,13.00
2022-11-24T03:37:45.060Z,15.50
2022-11-24T03:40:48.341Z,18.50
2022-11-24T03:43:53.402Z,18.75
2022-11-24T03:46:56.795Z,14.00
2022-11-24T03:50:00.379Z,14.00
2022-11-24T03:53:03.910Z,11.00
2022-11-24T03:56:07.989Z,12.25
2022-11-24T03:59:12.661Z,11.75
2022-11-24T04:02:16.327Z,10.00
2022-11-24T04:05:19.965Z,15.25
2022-11-24T04:08:23.608Z,18.50
2022-11-24T04:11:44.212Z,17.00
2022-11-24T04:14:49.256Z,15.50
2022-11-24T04:17:52.618Z,15.75
2022-11-24T04:20:56.497Z,15.00
2022-11-24T04:23:59.909Z,20.00
2022-11-24T04:27:03.621Z,14.00
2022-11-24T04:30:09.584Z,13.50
2022-11-24T04:33:14.118Z,17.75
2022-11-24T04:36:17.543Z,22.75
2022-11-24T04:39:25.094Z,43.50
2022-11-24T04:42:30.077Z,31.25
2022-11-24T04:45:35.089Z,28.50
2022-11-24T04:48:38.534Z,24.00
2022-11-24T04:51:43.101Z,14.50
2022-11-24T04:54:46.593Z,15.50
2022-11-24T04:57:50.328Z,40.00
2022-11-24T05:00:55.038Z,68.67
2022-11-24T05:03:59.586Z,40.00
2022-11-24T05:07:03.097Z,59.67
2022-11-24T05:10:25.085Z,29.00
2022-11-24T05:13:28.527Z,44.50
2022-11-24T05:16:33.724Z,31.75
2022-11-24T05:19:37.190Z,22.00
2022-11-24T05:22:41.022Z,45.00
2022-11-24T05:25:47.597Z,32.00
2022-11-24T05:28:51.774Z,34.00
2022-11-24T05:31:56.525Z,14.50
2022-11-24T05:35:02.213Z,58.50
2022-11-24T05:38:06.610Z,31.50
2022-11-24T05:41:10.410Z,24.00
2022-11-24T05:44:14.052Z,31.50
2022-11-24T05:47:19.391Z,36.50
2022-11-24T05:50:24.040Z,23.75
2022-11-24T05:53:27.836Z,30.25
2022-11-24T05:56:31.577Z,27.00
2022-11-24T05:59:35.418Z,28.75
2022-11-24T06:02:40.374Z,35.25
2022-11-24T06:05:48.160Z,34.25
2022-11-24T06:09:10.215Z,69.67
2022-11-24T06:12:14.569Z,26.75
2022-11-24T06:15:18.505Z,51.75
2022-11-24T06:18:23.669Z,39.25
2022-11-24T06:21:27.081Z,31.75
2022-11-24T06:24:30.832Z,36.00
2022-11-24T06:27:34.176Z,102.25
2022-11-24T06:30:37.872Z,40.50
2022-11-24T06:33:42.719Z,36.50
2022-11-24T06:36:47.033Z,34.75
2022-11-24T06:39:50.572Z,40.00
2022-11-24T06:42:54.323Z,36.75
2022-11-24T06:45:57.988Z,25.00
2022-11-24T06:49:03.153Z,27.75
2022-11-24T06:52:06.713Z,28.00
2022-11-24T06:55:10.841Z,35.75
2022-11-24T06:58:14.490Z,40.25
2022-11-24T07:01:19.135Z,34.00
2022-11-24T07:04:23.987Z,33.25
2022-11-24T07:07:27.748Z,43.00
2022-11-24T07:10:31.133Z,35.25
2022-11-24T07:13:35.426Z,43.50
2022-11-24T07:16:39.961Z,38.00
2022-11-24T07:19:45.219Z,38.25
2022-11-24T07:22:48.788Z,36.50
2022-11-24T07:25:52.563Z,36.00
2022-11-24T07:28:56.014Z,29.75
2022-11-24T07:32:05.228Z,87.00
2022-11-24T07:35:10.812Z,5.33
2022-11-24T07:38:14.635Z,49.50
2022-11-24T07:41:36.679Z,42.00
2022-11-24T07:44:40.760Z,80.33
2022-11-24T07:47:44.236Z,37.75
2022-11-24T07:50:55.326Z,35.50
2022-11-24T07:53:59.596Z,31.50
2022-11-24T07:57:03.324Z,38.25
2022-11-24T08:00:07.588Z,39.75
2022-11-24T08:03:11.497Z,61.33
2022-11-24T08:06:27.731Z,64.33
2022-11-24T08:09:34.156Z,66.33
2022-11-24T08:12:37.631Z,62.67
2022-11-24T08:15:41.383Z,64.00
2022-11-24T08:18:45.643Z,111.75
2022-11-24T08:21:50.794Z,54.75
2022-11-24T08:24:54.204Z,57.50
2022-11-24T08:27:58.106Z,60.67
2022-11-24T08:31:06.199Z,45.25
2022-11-24T08:34:10.849Z,48.25
2022-11-24T08:37:15.629Z,57.75
2022-11-24T08:40:19.374Z,44.75
2022-11-24T08:43:22.954Z,45.00
2022-11-24T08:46:26.715Z,44.25
2022-11-24T08:49:30.319Z,65.67
2022-11-24T08:52:35.412Z,50.25
2022-11-24T08:55:38.850Z,46.50
2022-11-24T08:58:43.301Z,49.50
2022-11-24T09:01:46.990Z,44.75
2022-11-24T09:04:51.193Z,44.00
2022-11-24T09:07:56.083Z,42.25
2022-11-24T09:11:03.823Z,41.25
2022-11-24T09:14:07.289Z,48.25
2022-11-24T09:17:11.700Z,40.75
2022-11-24T09:20:15.134Z,39.00
2022-11-24T09:23:21.266Z,33.00
2022-11-24T09:26:26.388Z,39.00
2022-11-24T09:29:31.275Z,54.67
2022-11-24T09:32:34.837Z,45.00
2022-11-24T09:35:39.916Z,39.00
2022-11-24T09:38:45.364Z,28.50
2022-11-24T09:42:05.278Z,32.00
2022-11-24T09:45:49.015Z,29.75
2022-11-24T09:48:52.337Z,33.50
2022-11-24T09:51:58.207Z,21.25
2022-11-24T09:55:14.143Z,24.50
2022-11-24T09:58:31.763Z,25.50
2022-11-24T10:01:41.617Z,23.25
2022-11-24T10:04:47.615Z,21.00
2022-11-24T10:08:11.922Z,26.50
2022-11-24T10:11:29.450Z,32.00
2022-11-24T10:15:01.628Z,29.25
2022-11-24T10:18:31.589Z,22.00
2022-11-24T10:22:04.701Z,19.50
2022-11-24T10:25:25.994Z,25.50
2022-11-24T10:28:39.126Z,29.00
2022-11-24T10:31:44.742Z,22.50
2022-11-24T10:34:53.444Z,26.00
2022-11-24T10:38:03.447Z,31.50
2022-11-24T10:41:13.422Z,34.50
2022-11-24T10:44:18.306Z,31.25
2022-11-24T10:47:23.032Z,39.00
2022-11-24T10:50:28.192Z,27.00
2022-11-24T10:53:33.726Z,22.00
2022-11-24T10:56:41.407Z,27.00
2022-11-24T10:59:46.798Z,29.00
2022-11-24T11:02:51.579Z,28.25
2022-11-24T11:05:58.681Z,29.25
2022-11-24T11:09:21.146Z,23.25
2022-11-24T11:12:45.717Z,24.25
2022-11-24T11:15:51.634Z,24.75
2022-11-24T11:18:55.654Z,26.75
2022-11-24T11:22:06.399Z,32.50
2022-11-24T11:25:22.296Z,28.25
2022-11-24T11:28:29.556Z,27.25
2022-11-24T11:31:35.808Z,23.50
2022-11-24T11:34:39.462Z,26.25
2022-11-24T11:37:45.285Z,28.50
2022-11-24T11:40:51.525Z,28.00
2022-11-24T11:44:06.158Z,32.00
2022-11-24T11:47:23.087Z,34.00
2022-11-24T11:50:39.221Z,39.25
2022-11-24T11:54:07.091Z,34.00
2022-11-24T11:57:18.784Z,48.00
2022-11-24T12:00:23.037Z,25.50
2022-11-24T12:04:03.468Z,14.25
2022-11-24T12:07:22.487Z,23.00
2022-11-24T12:10:35.255Z,22.50
2022-11-24T12:14:08.835Z,21.00
2022-11-24T12:17:22.451Z,19.00
2022-11-24T12:20:48.895Z,20.50
2022-11-24T12:24:04.695Z,18.25
2022-11-24T12:27:22.576Z,36.00
2022-11-24T12:30:29.468Z,24.50
2022-11-24T12:33:50.953Z,22.25
2022-11-24T12:37:20.193Z,21.75
2022-11-24T12:40:39.766Z,14.75
2022-11-24T12:43:52.047Z,7.50
2022-11-24T12:47:04.668Z,11.75
2022-11-24T12:50:11.634Z,11.75
2022-11-24T12:53:20.492Z,8.00
2022-11-24T12:56:30.005Z,20.00
2022-11-24T12:59:41.013Z,16.25
2022-11-24T13:03:07.938Z,23.50
2022-11-24T13:06:18.032Z,14.00
2022-11-24T13:09:23.377Z,8.75
2022-11-24T13:12:26.893Z,11.25
2022-11-24T13:15:45.681Z,7.25
2022-11-24T13:18:57.071Z,29.00
2022-11-24T13:22:14.940Z,37.25
2022-11-24T13:25:23.149Z,30.75
2022-11-24T13:29:08.949Z,19.25
2022-11-24T13:32:48.525Z,28.00
2022-11-24T13:36:28.789Z,18.00
2022-11-24T13:39:51.645Z,16.50
2022-11-24T13:43:26.721Z,8.00
2022-11-24T13:47:03.299Z,27.00
2022-11-24T13:50:15.212Z,41.25
2022-11-24T13:53:27.964Z,28.75
2022-11-24T13:56:33.126Z,28.00
2022-11-24T13:59:38.347Z,70.00
2022-11-24T14:02:45.396Z,33.00
2022-11-24T14:05:51.948Z,37.00
2022-11-24T14:08:56.680Z,35.00
2022-11-24T14:12:07.481Z,35.00
2022-11-24T14:15:24.241Z,50.25
2022-11-24T14:18:29.420Z,11.50
2022-11-24T14:21:37.578Z,29.00
2022-11-24T14:24:45.234Z,26.25
2022-11-24T14:27:49.171Z,38.75
2022-11-24T14:31:08.471Z,23.50
2022-11-24T14:34:19.266Z,34.75
2022-11-24T14:37:22.695Z,50.00
2022-11-24T14:40:43.599Z,43.50
2022-11-24T14:43:47.103Z,31.75
2022-11-24T14:46:52.554Z,27.25
2022-11-24T14:49:57.936Z,30.00
2022-11-24T14:53:02.300Z,29.25
2022-11-24T14:56:11.249Z,32.75
2022-11-24T14:59:23.316Z,27.00
2022-11-24T15:02:46.279Z,35.00
2022-11-24T15:06:19.970Z,42.50
2022-11-24T15:09:28.459Z,31.00
2022-11-24T15:12:34.971Z,34.25
2022-11-24T15:15:40.290Z,44.25
2022-11-24T15:18:48.011Z,48.50
2022-11-24T15:21:51.603Z,0.00
2022-11-24T15:24:55.768Z,41.25
2022-11-24T15:27:59.188Z,38.00
2022-11-24T15:31:04.954Z,37.00
2022-11-24T15:34:14.730Z,39.00
2022-11-24T15:37:18.449Z,42.00
2022-11-24T15:40:22.211Z,47.00
2022-11-24T15:43:30.992Z,48.00
2022-11-24T15:46:38.573Z,44.75
2022-11-24T15:49:43.949Z,46.25
2022-11-24T15:52:48.793Z,47.25
2022-11-24T15:55:53.796Z,84.33
2022-11-24T15:58:57.272Z,69.33
2022-11-24T16:02:01.038Z,56.67
2022-11-24T16:05:06.691Z,38.25
2022-11-24T16:08:14.182Z,55.00
2022-11-24T16:11:17.624Z,57.25
2022-11-24T16:14:21.515Z,49.75
2022-11-24T16:17:25.091Z,45.25
2022-11-24T16:20:30.170Z,46.33
2022-11-24T16:23:35.291Z,41.50
2022-11-24T16:26:39.453Z,39.75
2022-11-24T16:29:43.305Z,38.00
2022-11-24T16:32:47.166Z,35.75
2022-11-24T16:35:52.002Z,38.75
2022-11-24T16:38:55.740Z,38.00
2022-11-24T16:41:59.192Z,45.50
2022-11-24T16:45:03.347Z,49.75
2022-11-24T16:48:07.296Z,42.25
2022-11-24T16:51:13.693Z,49.50
2022-11-24T16:54:17.149Z,44.25
2022-11-24T16:57:20.951Z,53.00
2022-11-24T17:00:24.850Z,46.25
2022-11-24T17:03:33.254Z,42.75
2022-11-24T17:06:38.036Z,45.25
2022-11-24T17:09:41.729Z,40.00
2022-11-24T17:12:45.209Z,43.00
2022-11-24T17:15:53.947Z,37.00
2022-11-24T17:18:58.859Z,34.00
2022-11-24T17:22:04.194Z,44.00
2022-11-24T17:25:08.754Z,42.00
2022-11-24T17:28:12.606Z,35.75
2022-11-24T17:31:21.420Z,31.75
2022-11-24T17:34:25.198Z,35.25
2022-11-24T17:37:32.178Z,32.75
2022-11-24T17:40:35.996Z,33.75
2022-11-24T17:43:39.811Z,28.50
2022-11-24T17:46:43.628Z,53.50
2022-11-24T17:49:47.055Z,32.00
2022-11-24T17:52:52.276Z,40.50
2022-11-24T17:55:55.722Z,45.25
2022-11-24T17:59:01.832Z,33.00
2022-11-24T18:02:05.595Z,39.00
2022-11-24T18:05:10.374Z,32.75
2022-11-24T18:08:15.177Z,34.00
2022-11-24T18:11:24.685Z,31.25
2022-11-24T18:14:30.934Z,39.00
2022-11-24T18:17:34.767Z,44.00
2022-11-24T18:20:38.149Z,58.00
2022-11-24T18:23:44.051Z,94.33
2022-11-24T18:26:47.492Z,54.33
2022-11-24T18:29:56.038Z,44.00
2022-11-24T18:33:00.125Z,43.50
2022-11-24T18:36:06.872Z,42.50
2022-11-24T18:39:17.756Z,46.00
2022-11-24T18:42:22.407Z,32.50
2022-11-24T18:45:25.890Z,43.75
2022-11-24T18:48:29.612Z,37.50
2022-11-24T18:51:33.106Z,29.50
2022-11-24T18:54:38.403Z,11.25
2022-11-24T18:57:41.905Z,25.75
2022-11-24T19:00:45.686Z,18.50
2022-11-24T19:03:50.829Z,8.75
2022-11-24T19:06:54.572Z,16.25
2022-11-24T19:09:59.482Z,7.25
2022-11-24T19:13:03.275Z,14.00
2022-11-24T19:16:14.765Z,16.00
2022-11-24T19:19:18.648Z,12.00
2022-11-24T19:22:24.066Z,9.75
2022-11-24T19:25:29.658Z,22.50
2022-11-24T19:28:36.160Z,26.00
2022-11-24T19:31:40.448Z,25.25
2022-11-24T19:34:43.863Z,32.50
2022-11-24T19:37:47.614Z,34.50
2022-11-24T19:41:00.514Z,40.75
2022-11-24T19:44:04.468Z,42.00
2022-11-24T19:47:07.927Z,42.25
2022-11-24T19:50:12.887Z,37.00
2022-11-24T19:53:16.340Z,59.00
2022-11-24T19:56:23.371Z,54.00
2022-11-24T19:59:26.767Z,56.00
2022-11-24T20:02:31.746Z,57.00
2022-11-24T20:05:35.380Z,71.33
2022-11-24T20:08:40.059Z,65.67
2022-11-24T20:11:45.229Z,44.75
2022-11-24T20:14:48.920Z,39.75
2022-11-24T20:17:52.664Z,40.00
2022-11-24T20:20:56.406Z,42.75
2022-11-24T20:24:01.677Z,50.75
2022-11-24T20:27:06.998Z,52.75
2022-11-24T20:30:11.535Z,65.33
2022-11-24T20:33:15.472Z,62.67
2022-11-24T20:36:20.936Z,44.75
2022-11-24T20:39:26.526Z,42.00
2022-11-24T20:42:32.324Z,40.25
2022-11-24T20:45:37.430Z,33.00
2022-11-24T20:48:41.358Z,35.25
2022-11-24T20:51:47.717Z,47.50
2022-11-24T20:54:51.324Z,42.75
2022-11-24T20:57:56.663Z,43.75
2022-11-24T21:01:21.734Z,40.00
2022-11-24T21:04:27.847Z,42.25
2022-11-24T21:07:31.328Z,42.50
2022-11-24T21:10:35.174Z,45.75
2022-11-24T21:13:43.790Z,59.33
2022-11-24T21:16:47.646Z,58.00
2022-11-24T21:19:51.546Z,42.25
2022-11-24T21:22:55.431Z,45.50
2022-11-24T21:26:05.177Z,42.50
2022-11-24T21:29:14.069Z,0.00
2022-11-24T21:32:18.108Z,46.00
2022-11-24T21:35:40.233Z,41.00
2022-11-24T21:38:43.916Z,40.00
2022-11-24T21:41:47.733Z,41.00
2022-11-24T21:44:52.538Z,43.25
2022-11-24T21:47:57.878Z,42.50
2022-11-24T21:51:02.670Z,47.00
2022-11-24T21:54:06.894Z,51.75
2022-11-24T21:57:11.114Z,49.00
2022-11-24T22:00:17.934Z,50.25
2022-11-24T22:03:22.151Z,44.00
2022-11-24T22:06:25.828Z,43.25
2022-11-24T22:09:29.161Z,53.00
2022-11-24T22:12:33.015Z,52.75
2022-11-24T22:15:37.802Z,41.25
2022-11-24T22:18:43.067Z,58.75
2022-11-24T22:21:46.497Z,57.50
2022-11-24T22:24:50.180Z,40.75
2022-11-24T22:27:53.663Z,45.50
2022-11-24T22:30:58.753Z,51.00
2022-11-24T22:34:02.396Z,45.50
2022-11-24T22:37:06.097Z,48.00
2022-11-24T22:40:10.301Z,33.50
2022-11-24T22:43:16.725Z,41.25
2022-11-24T22:46:27.075Z,42.25
2022-11-24T22:49:30.834Z,41.75
2022-11-24T22:52:34.522Z,31.25
2022-11-24T22:55:38.265Z,41.25
2022-11-24T22:58:42.166Z,42.75
2022-11-24T23:01:47.218Z,58.25
2022-11-24T23:04:50.600Z,43.50
2022-11-24T23:07:54.343Z,42.50
2022-11-24T23:11:02.205Z,57.75
2022-11-24T23:14:07.053Z,46.00
2022-11-24T23:17:11.983Z,41.75
2022-11-24T23:20:16.206Z,40.75
2022-11-24T23:23:19.607Z,38.25
2022-11-24T23:26:25.997Z,42.00
2022-11-24T23:29:29.461Z,31.50
2022-11-24T23:32:34.574Z,45.00
2022-11-24T23:35:37.943Z,51.50
2022-11-24T23:38:42.296Z,38.75
2022-11-24T23:41:45.619Z,40.75
2022-11-24T23:44:49.314Z,30.00
2022-11-24T23:47:55.800Z,34.00
2022-11-24T23:51:04.989Z,55.25
2022-11-24T23:54:09.662Z,41.00
2022-11-24T23:57:13.360Z,35.00
